createdAt,value
2018-09-22T00:00:35.916Z,76.82
2018-09-22T00:01:35.949Z,76.88
2018-09-22T00:02:36.123Z,76.89
2018-09-22T00:03:35.992Z,76.84
2018-09-22T00:04:36.048Z,76.94
2018-09-22T00:05:36.012Z,76.86
2018-09-22T00:06:35.970Z,76.77
2018-09-22T00:07:35.980Z,76.68
2018-09-22T00:08:35.893Z,76.92
2018-09-22T00:09:36.020Z,76.65
2018-09-22T00:10:36.017Z,76.99
2018-09-22T00:11:36.131Z,76.9
2018-09-22T00:12:36.040Z,77.45
2018-09-22T00:13:35.980Z,77.28
2018-09-22T00:14:36.079Z,77.13
2018-09-22T00:15:36.118Z,76.87
2018-09-22T00:16:35.993Z,77.26
2018-09-22T00:17:35.966Z,77.02
2018-09-22T00:18:36.072Z,77.15
2018-09-22T00:19:35.896Z,76.93
2018-09-22T00:20:35.958Z,77.07
2018-09-22T00:21:36.138Z,76.76
2018-09-22T00:22:36.174Z,76.86
2018-09-22T00:23:36.166Z,76.97
2018-09-22T00:24:36.092Z,76.89
2018-09-22T00:25:35.908Z,76.91
2018-09-22T00:26:36.552Z,77.19
2018-09-22T00:27:35.943Z,76.77
2018-09-22T00:28:36.051Z,76.73
2018-09-22T00:29:36.019Z,76.7
2018-09-22T00:30:35.970Z,76.5
2018-09-22T00:31:36.167Z,77.09
2018-09-22T00:32:35.971Z,77.27
2018-09-22T00:33:36.135Z,77.05
2018-09-22T00:34:35.936Z,77.04
2018-09-22T00:35:36.011Z,77.1
2018-09-22T00:36:36.121Z,76.98
2018-09-22T00:37:36.077Z,77.24
2018-09-22T00:38:36.079Z,77.17
2018-09-22T00:39:36.090Z,77.22
2018-09-22T00:40:35.931Z,77.61
2018-09-22T00:41:35.906Z,77.38
2018-09-22T00:42:36.096Z,77.38
2018-09-22T00:43:36.043Z,77.4
2018-09-22T00:44:36.092Z,77.61
2018-09-22T00:45:35.963Z,77.55
2018-09-22T00:46:35.913Z,77.41
2018-09-22T00:47:35.903Z,77.35
2018-09-22T00:48:36.080Z,77.13
2018-09-22T00:49:35.886Z,77.61
2018-09-22T00:50:36.019Z,77.51
2018-09-22T00:51:35.985Z,77.41
2018-09-22T00:52:43.437Z,77.33
2018-09-22T00:53:35.918Z,77.43
2018-09-22T00:54:36.028Z,77.6
2018-09-22T00:55:36.058Z,77.26
2018-09-22T00:56:35.908Z,77.06
2018-09-22T00:57:36.106Z,76.78
2018-09-22T00:58:35.914Z,76.66
2018-09-22T00:59:35.887Z,76.84
2018-09-22T01:00:36.020Z,76.65
2018-09-22T01:01:35.900Z,76.72
2018-09-22T01:02:36.025Z,76.5
2018-09-22T01:03:36.194Z,76.5
2018-09-22T01:04:36.037Z,76.58
2018-09-22T01:05:35.909Z,76.44
2018-09-22T01:06:36.006Z,76.64
2018-09-22T01:07:35.868Z,76.72
2018-09-22T01:08:35.915Z,76.61
2018-09-22T01:09:35.870Z,76.5
2018-09-22T01:10:35.986Z,76.16
2018-09-22T01:11:36.074Z,76.31
2018-09-22T01:12:36.054Z,76.58
2018-09-22T01:13:36.072Z,76.41
2018-09-22T01:14:35.874Z,76.64
2018-09-22T01:15:36.290Z,76.32
2018-09-22T01:16:36.125Z,76.33
2018-09-22T01:17:35.916Z,76.19
2018-09-22T01:18:35.972Z,76
2018-09-22T01:19:35.961Z,76.15
2018-09-22T01:20:35.925Z,76.2
2018-09-22T01:21:35.855Z,76.12
2018-09-22T01:22:35.931Z,75.74
2018-09-22T01:23:36.055Z,75.23
2018-09-22T01:24:36.016Z,75.28
2018-09-22T01:25:36.022Z,75.27
2018-09-22T01:26:35.926Z,75.1
2018-09-22T01:27:35.994Z,75.39
2018-09-22T01:28:35.863Z,75.34
2018-09-22T01:29:35.937Z,75.25
2018-09-22T01:30:35.949Z,75.18
2018-09-22T01:31:36.011Z,75.39
2018-09-22T01:32:36.002Z,75.14
2018-09-22T01:33:35.868Z,75.18
2018-09-22T01:34:35.907Z,74.92
2018-09-22T01:35:36.065Z,75.07
2018-09-22T01:36:36.014Z,75.03
2018-09-22T01:37:35.980Z,74.55
2018-09-22T01:38:36.100Z,74.66
2018-09-22T01:39:36.108Z,75.16
2018-09-22T01:40:36.130Z,75.08
2018-09-22T01:41:35.864Z,74.98
2018-09-22T01:42:35.920Z,75.05
2018-09-22T01:43:36.054Z,74.94
2018-09-22T01:44:36.014Z,74.89
2018-09-22T01:45:36.055Z,74.67
2018-09-22T01:46:36.103Z,74.79
2018-09-22T01:47:36.067Z,74.77
2018-09-22T01:48:36.072Z,74.78
2018-09-22T01:49:36.119Z,74.73
2018-09-22T01:50:35.852Z,74.81
2018-09-22T01:51:36.097Z,74.87
2018-09-22T01:52:36.409Z,74.78
2018-09-22T01:53:35.863Z,74.9
2018-09-22T01:54:36.108Z,75
2018-09-22T01:55:35.886Z,75.44
2018-09-22T01:56:36.023Z,75.56
2018-09-22T01:57:35.859Z,75.22
2018-09-22T01:58:35.907Z,75.26
2018-09-22T01:59:36.019Z,75.37
2018-09-22T02:00:36.088Z,75.03
2018-09-22T02:01:36.128Z,74.74
2018-09-22T02:02:35.877Z,74.92
2018-09-22T02:03:36.037Z,74.85
2018-09-22T02:04:36.153Z,75.08
2018-09-22T02:05:35.913Z,75.09
2018-09-22T02:06:35.827Z,74.98
2018-09-22T02:07:35.900Z,75.11
2018-09-22T02:08:36.380Z,75.03
2018-09-22T02:09:35.842Z,75.2
2018-09-22T02:10:36.321Z,75.65
2018-09-22T02:11:35.904Z,75.02
2018-09-22T02:12:35.975Z,75.24
2018-09-22T02:13:36.113Z,75.31
2018-09-22T02:14:35.920Z,75.44
2018-09-22T02:15:36.064Z,75.14
2018-09-22T02:16:35.918Z,75.16
2018-09-22T02:17:36.005Z,74.53
2018-09-22T02:18:35.899Z,74.71
2018-09-22T02:19:37.085Z,74.9
2018-09-22T02:20:36.129Z,74.98
2018-09-22T02:21:35.921Z,75.18
2018-09-22T02:22:36.071Z,75.4
2018-09-22T02:23:36.163Z,75.18
2018-09-22T02:24:35.933Z,75.09
2018-09-22T02:25:35.925Z,75.09
2018-09-22T02:26:36.241Z,75.07
2018-09-22T02:27:35.867Z,74.8
2018-09-22T02:28:35.976Z,75.18
2018-09-22T02:29:35.902Z,74.98
2018-09-22T02:30:35.968Z,75.26
2018-09-22T02:31:35.927Z,75.39
2018-09-22T02:32:36.082Z,74.99
2018-09-22T02:33:35.860Z,74.83
2018-09-22T02:34:35.993Z,75.22
2018-09-22T02:35:36.131Z,75.16
2018-09-22T02:36:35.913Z,74.92
2018-09-22T02:37:35.889Z,74.76
2018-09-22T02:38:35.873Z,74.49
2018-09-22T02:39:35.886Z,74.47
2018-09-22T02:40:35.917Z,74.66
2018-09-22T02:41:36.382Z,74.51
2018-09-22T02:42:35.850Z,74.2
2018-09-22T02:43:35.851Z,74.12
2018-09-22T02:44:35.983Z,74.19
2018-09-22T02:45:35.900Z,74
2018-09-22T02:46:35.941Z,74.09
2018-09-22T02:47:35.890Z,73.85
2018-09-22T02:48:35.849Z,73.98
2018-09-22T02:49:36.000Z,74.33
2018-09-22T02:50:36.056Z,74.28
2018-09-22T02:51:36.001Z,74.4
2018-09-22T02:52:36.030Z,74.4
2018-09-22T02:53:36.013Z,74.4
2018-09-22T02:54:35.886Z,74.42
2018-09-22T02:55:35.825Z,74.27
2018-09-22T02:56:36.241Z,74.43
2018-09-22T02:57:35.848Z,74.39
2018-09-22T02:58:35.847Z,74.35
2018-09-22T02:59:35.905Z,74.4
2018-09-22T03:00:36.049Z,74.13
2018-09-22T03:01:36.604Z,74.28
2018-09-22T03:02:35.894Z,74.39
2018-09-22T03:03:36.270Z,74.35
2018-09-22T03:04:36.102Z,74.38
2018-09-22T03:05:36.300Z,74.21
2018-09-22T03:06:36.272Z,74.15
2018-09-22T03:07:35.975Z,74.28
2018-09-22T03:08:36.232Z,74.67
2018-09-22T03:09:35.949Z,74.58
2018-09-22T03:10:36.028Z,74.55
2018-09-22T03:11:36.221Z,74.5
2018-09-22T03:12:35.935Z,74.71
2018-09-22T03:13:36.067Z,74.77
2018-09-22T03:14:35.922Z,74.73
2018-09-22T03:15:36.037Z,74.64
2018-09-22T03:16:36.331Z,75.08
2018-09-22T03:17:36.003Z,74.79
2018-09-22T03:18:36.063Z,74.48
2018-09-22T03:19:36.072Z,74.62
2018-09-22T03:20:36.045Z,74.76
2018-09-22T03:21:36.055Z,74.73
2018-09-22T03:22:36.136Z,74.82
2018-09-22T03:23:35.939Z,75
2018-09-22T03:24:36.089Z,75.1
2018-09-22T03:25:35.897Z,74.93
2018-09-22T03:26:36.102Z,74.84
2018-09-22T03:27:36.004Z,74.89
2018-09-22T03:28:36.163Z,75.1
2018-09-22T03:29:36.151Z,74.91
2018-09-22T03:30:36.040Z,75.13
2018-09-22T03:31:36.135Z,74.89
2018-09-22T03:32:36.110Z,74.75
2018-09-22T03:33:35.960Z,74.74
2018-09-22T03:34:36.042Z,74.59
2018-09-22T03:35:35.914Z,74.72
2018-09-22T03:36:36.438Z,74.65
2018-09-22T03:37:35.928Z,74.54
2018-09-22T03:38:36.036Z,74.72
2018-09-22T03:39:35.884Z,74.65
2018-09-22T03:40:36.098Z,74.87
2018-09-22T03:41:35.964Z,74.79
2018-09-22T03:42:36.039Z,74.83
2018-09-22T03:43:36.119Z,74.55
2018-09-22T03:44:36.002Z,74.41
2018-09-22T03:45:36.440Z,74.46
2018-09-22T03:46:35.926Z,74.24
2018-09-22T03:47:35.993Z,74.21
2018-09-22T03:48:36.002Z,74.15
2018-09-22T03:49:36.040Z,74
2018-09-22T03:50:35.916Z,74.19
2018-09-22T03:51:36.068Z,74.4
2018-09-22T03:52:36.900Z,74.09
2018-09-22T03:53:36.129Z,74.1
2018-09-22T03:54:36.044Z,73.99
2018-09-22T03:55:36.155Z,73.84
2018-09-22T03:56:35.969Z,73.75
2018-09-22T03:57:35.963Z,73.73
2018-09-22T03:58:36.187Z,73.78
2018-09-22T03:59:35.904Z,73.76
2018-09-22T04:00:35.955Z,74.07
2018-09-22T04:01:35.860Z,73.97
2018-09-22T04:02:35.971Z,73.89
2018-09-22T04:03:35.974Z,73.83
2018-09-22T04:04:35.914Z,73.78
2018-09-22T04:05:35.946Z,73.95
2018-09-22T04:06:35.963Z,73.74
2018-09-22T04:07:35.916Z,73.68
2018-09-22T04:08:35.919Z,73.72
2018-09-22T04:09:36.023Z,73.53
2018-09-22T04:10:36.016Z,73.69
2018-09-22T04:11:36.045Z,73.84
2018-09-22T04:12:36.198Z,73.93
2018-09-22T04:13:35.903Z,73.87
2018-09-22T04:14:35.944Z,73.96
2018-09-22T04:15:35.899Z,73.73
2018-09-22T04:16:36.023Z,73.73
2018-09-22T04:17:35.968Z,73.55
2018-09-22T04:18:35.902Z,73.5
2018-09-22T04:19:35.979Z,73.51
2018-09-22T04:20:36.086Z,73.61
2018-09-22T04:21:36.112Z,73.62
2018-09-22T04:22:36.101Z,73.47
2018-09-22T04:23:36.159Z,73.42
2018-09-22T04:24:36.323Z,73.14
2018-09-22T04:25:35.910Z,73.37
2018-09-22T04:26:35.998Z,73.44
2018-09-22T04:27:36.168Z,73.46
2018-09-22T04:28:36.064Z,73.48
2018-09-22T04:29:36.466Z,73.51
2018-09-22T04:30:36.681Z,73.56
2018-09-22T04:31:36.037Z,73.6
2018-09-22T04:32:35.899Z,73.6
2018-09-22T04:33:35.994Z,73.52
2018-09-22T04:34:36.059Z,73.29
2018-09-22T04:35:36.026Z,73.41
2018-09-22T04:36:36.037Z,73.41
2018-09-22T04:37:36.272Z,73.43
2018-09-22T04:38:36.046Z,73.66
2018-09-22T04:39:36.089Z,73.61
2018-09-22T04:40:36.069Z,73.73
2018-09-22T04:41:36.079Z,73.53
2018-09-22T04:42:36.125Z,73.48
2018-09-22T04:43:36.024Z,73.27
2018-09-22T04:44:36.159Z,73.51
2018-09-22T04:45:36.812Z,73.24
2018-09-22T04:46:36.188Z,73.45
2018-09-22T04:47:35.946Z,73.5
2018-09-22T04:48:36.293Z,73.46
2018-09-22T04:49:35.962Z,73.48
2018-09-22T04:50:36.157Z,73.38
2018-09-22T04:51:36.120Z,73.19
2018-09-22T04:52:36.432Z,73.11
2018-09-22T04:53:36.146Z,72.96
2018-09-22T04:54:36.131Z,73.16
2018-09-22T04:55:36.037Z,73.1
2018-09-22T04:56:37.013Z,73.13
2018-09-22T04:57:36.464Z,73.22
2018-09-22T04:58:36.028Z,73.27
2018-09-22T04:59:35.966Z,73.22
2018-09-22T05:00:36.282Z,73.14
2018-09-22T05:01:36.012Z,73.1
2018-09-22T05:02:36.137Z,73.23
2018-09-22T05:03:36.035Z,73.05
2018-09-22T05:04:36.092Z,73.15
2018-09-22T05:05:36.068Z,73.03
2018-09-22T05:06:36.106Z,73.09
2018-09-22T05:07:36.085Z,73.09
2018-09-22T05:08:36.025Z,73.14
2018-09-22T05:09:36.080Z,72.93
2018-09-22T05:10:36.015Z,72.8
2018-09-22T05:11:36.140Z,72.75
2018-09-22T05:12:35.999Z,72.96
2018-09-22T05:13:36.172Z,73.03
2018-09-22T05:14:36.062Z,73.21
2018-09-22T05:15:36.067Z,73.15
2018-09-22T05:16:36.075Z,73.08
2018-09-22T05:17:36.236Z,73.27
2018-09-22T05:18:36.174Z,73.35
2018-09-22T05:19:36.153Z,73.41
2018-09-22T05:20:36.261Z,73.41
2018-09-22T05:21:36.094Z,73.37
2018-09-22T05:22:36.101Z,73.43
2018-09-22T05:23:36.001Z,73.24
2018-09-22T05:24:36.236Z,73.08
2018-09-22T05:25:36.026Z,72.95
2018-09-22T05:26:36.374Z,73.31
2018-09-22T05:27:36.061Z,73.33
2018-09-22T05:28:35.980Z,73.31
2018-09-22T05:29:36.005Z,73.26
2018-09-22T05:30:35.991Z,73.33
2018-09-22T05:31:36.028Z,73.02
2018-09-22T05:32:36.039Z,72.98
2018-09-22T05:33:36.363Z,73.13
2018-09-22T05:34:36.012Z,73.06
2018-09-22T05:35:35.984Z,72.96
2018-09-22T05:36:35.940Z,72.82
2018-09-22T05:37:36.089Z,72.61
2018-09-22T05:38:36.077Z,72.72
2018-09-22T05:39:36.061Z,72.79
2018-09-22T05:40:36.009Z,72.95
2018-09-22T05:41:36.144Z,73.13
2018-09-22T05:42:36.036Z,73.02
2018-09-22T05:43:36.073Z,73.07
2018-09-22T05:44:36.144Z,73.14
2018-09-22T05:45:36.048Z,73.05
2018-09-22T05:46:36.135Z,73.15
2018-09-22T05:47:36.072Z,73.24
2018-09-22T05:48:36.098Z,73.42
2018-09-22T05:49:36.173Z,73.36
2018-09-22T05:50:36.046Z,73.53
2018-09-22T05:51:36.004Z,73.82
2018-09-22T05:52:36.128Z,73.51
2018-09-22T05:53:36.186Z,73.54
2018-09-22T05:54:36.092Z,73.73
2018-09-22T05:55:36.081Z,73.69
2018-09-22T05:56:36.127Z,73.75
2018-09-22T05:57:36.060Z,73.92
2018-09-22T05:58:35.960Z,73.5
2018-09-22T05:59:36.064Z,73.24
2018-09-22T06:00:36.060Z,73.35
2018-09-22T06:01:36.152Z,73.52
2018-09-22T06:02:36.077Z,73.22
2018-09-22T06:03:36.615Z,73.72
2018-09-22T06:04:36.047Z,73.87
2018-09-22T06:05:36.086Z,73.79
2018-09-22T06:06:36.004Z,73.59
2018-09-22T06:07:36.102Z,73.39
2018-09-22T06:08:36.207Z,73.41
2018-09-22T06:09:36.255Z,73.48
2018-09-22T06:10:35.993Z,73.87
2018-09-22T06:11:36.232Z,73.67
2018-09-22T06:12:36.052Z,73.66
2018-09-22T06:13:36.087Z,73.56
2018-09-22T06:14:36.046Z,73.71
2018-09-22T06:15:36.091Z,73.85
2018-09-22T06:16:36.262Z,73.88
2018-09-22T06:17:36.044Z,74.07
2018-09-22T06:18:36.074Z,74.21
2018-09-22T06:19:36.105Z,73.97
2018-09-22T06:20:36.048Z,74.12
2018-09-22T06:21:36.051Z,74.17
2018-09-22T06:22:36.085Z,74
2018-09-22T06:23:36.363Z,73.93
2018-09-22T06:24:36.067Z,73.99
2018-09-22T06:25:36.778Z,73.81
2018-09-22T06:26:36.008Z,73.96
2018-09-22T06:27:36.066Z,74.11
2018-09-22T06:28:36.100Z,73.87
2018-09-22T06:29:36.009Z,74.08
2018-09-22T06:30:36.095Z,74.33
2018-09-22T06:31:36.053Z,74.51
2018-09-22T06:32:35.979Z,74.24
2018-09-22T06:33:36.041Z,74.21
2018-09-22T06:34:36.073Z,74.27
2018-09-22T06:35:36.057Z,74.91
2018-09-22T06:36:35.997Z,75
2018-09-22T06:37:36.007Z,75.4
2018-09-22T06:38:36.109Z,74.99
2018-09-22T06:39:36.198Z,75.6
2018-09-22T06:40:35.988Z,75.2
2018-09-22T06:41:36.005Z,75.19
2018-09-22T06:42:36.027Z,75.45
2018-09-22T06:43:36.083Z,75.53
2018-09-22T06:44:35.998Z,75.71
2018-09-22T06:45:35.986Z,75.77
2018-09-22T06:46:36.074Z,75.59
2018-09-22T06:47:36.138Z,75.27
2018-09-22T06:48:36.048Z,75.6
2018-09-22T06:49:36.026Z,75.64
2018-09-22T06:50:36.031Z,75.86
2018-09-22T06:51:36.024Z,75.87
2018-09-22T06:53:36.015Z,75.75
2018-09-22T06:54:35.995Z,75.81
2018-09-22T06:55:36.151Z,75.88
2018-09-22T06:56:35.971Z,76.34
2018-09-22T06:57:36.068Z,76.26
2018-09-22T06:58:36.011Z,75.82
2018-09-22T06:59:35.986Z,75.78
2018-09-22T07:00:35.993Z,76.19
2018-09-22T07:01:35.989Z,76.21
2018-09-22T07:02:36.061Z,75.92
2018-09-22T07:03:36.036Z,75.83
2018-09-22T07:04:35.942Z,75.85
2018-09-22T07:05:36.018Z,76.03
2018-09-22T07:06:36.025Z,75.83
2018-09-22T07:07:36.310Z,75.65
2018-09-22T07:08:36.142Z,75.27
2018-09-22T07:09:36.006Z,75.12
2018-09-22T07:10:36.030Z,75.13
2018-09-22T07:11:36.092Z,74.81
2018-09-22T07:12:36.026Z,74.61
2018-09-22T07:13:36.118Z,74.81
2018-09-22T07:14:36.080Z,74.69
2018-09-22T07:15:36.040Z,74.65
2018-09-22T07:16:36.037Z,74.27
2018-09-22T07:17:36.010Z,74.3
2018-09-22T07:18:36.078Z,74.59
2018-09-22T07:19:36.659Z,74.53
2018-09-22T07:20:36.029Z,74.52
2018-09-22T07:21:35.998Z,74.24
2018-09-22T07:22:36.007Z,74.16
2018-09-22T07:23:36.129Z,74.04
2018-09-22T07:24:36.127Z,73.2
2018-09-22T07:25:36.087Z,73.85
2018-09-22T07:26:36.011Z,73.89
2018-09-22T07:27:36.183Z,73.49
2018-09-22T07:28:36.023Z,73.73
2018-09-22T07:29:36.294Z,73.8
2018-09-22T07:30:36.083Z,73.82
2018-09-22T07:31:36.073Z,73.96
2018-09-22T07:32:36.090Z,73.31
2018-09-22T07:33:36.035Z,73.24
2018-09-22T07:34:36.188Z,73.17
2018-09-22T07:35:36.133Z,73.11
2018-09-22T07:36:36.118Z,72.99
2018-09-22T07:37:35.985Z,72.95
2018-09-22T07:38:36.088Z,73.04
2018-09-22T07:39:36.027Z,72.83
2018-09-22T07:40:35.991Z,72.52
2018-09-22T07:41:36.140Z,71.92
2018-09-22T07:42:36.093Z,72.45
2018-09-22T07:43:36.025Z,72.38
2018-09-22T07:44:36.039Z,72.43
2018-09-22T07:45:36.117Z,72.36
2018-09-22T07:46:36.042Z,71.92
2018-09-22T07:47:36.133Z,71.74
2018-09-22T07:48:36.173Z,71.5
2018-09-22T07:49:36.052Z,71.03
2018-09-22T07:50:36.080Z,70.38
2018-09-22T07:51:36.057Z,70.52
2018-09-22T07:52:36.007Z,70.64
2018-09-22T07:53:36.536Z,70.26
2018-09-22T07:54:36.120Z,70.03
2018-09-22T07:55:36.061Z,69.6
2018-09-22T07:56:36.188Z,70.04
2018-09-22T07:57:36.209Z,69.72
2018-09-22T07:58:36.163Z,69.46
2018-09-22T07:59:36.068Z,69.5
2018-09-22T08:00:36.464Z,68.88
2018-09-22T08:01:36.253Z,69.28
2018-09-22T08:02:36.100Z,68.65
2018-09-22T08:03:36.201Z,68.34
2018-09-22T08:04:36.125Z,68.6
2018-09-22T08:05:36.143Z,68.7
2018-09-22T08:06:36.028Z,68.77
2018-09-22T08:07:36.098Z,67.86
2018-09-22T08:08:36.032Z,66.76
2018-09-22T08:09:36.000Z,66.83
2018-09-22T08:10:36.089Z,67.23
2018-09-22T08:11:36.342Z,67.23
2018-09-22T08:12:35.999Z,67.17
2018-09-22T08:13:36.029Z,66.5
2018-09-22T08:14:36.033Z,66.9
2018-09-22T08:15:36.068Z,66.66
2018-09-22T08:16:36.230Z,66.65
2018-09-22T08:17:36.090Z,66.48
2018-09-22T08:18:36.220Z,66.87
2018-09-22T08:19:36.892Z,67.27
2018-09-22T08:20:36.131Z,67.03
2018-09-22T08:21:36.112Z,66.31
2018-09-22T08:22:36.106Z,65.97
2018-09-22T08:23:36.027Z,65.77
2018-09-22T08:24:36.688Z,65.82
2018-09-22T08:25:36.035Z,65.24
2018-09-22T08:26:36.059Z,66.17
2018-09-22T08:27:36.221Z,64.51
2018-09-22T08:28:36.117Z,64.22
2018-09-22T08:29:36.155Z,63.78
2018-09-22T08:30:36.365Z,63.29
2018-09-22T08:31:36.168Z,63.2
2018-09-22T08:32:36.206Z,63.55
2018-09-22T08:33:36.128Z,62.97
2018-09-22T08:34:36.165Z,63.32
2018-09-22T08:35:36.165Z,63.28
2018-09-22T08:36:37.663Z,63.27
2018-09-22T08:37:36.592Z,63.46
2018-09-22T08:38:36.051Z,63.22
2018-09-22T08:39:37.511Z,63.25
2018-09-22T08:40:36.134Z,62.86
2018-09-22T08:41:37.180Z,62.25
2018-09-22T08:42:36.162Z,62.31
2018-09-22T08:43:38.052Z,62.54
2018-09-22T08:44:36.156Z,62.64
2018-09-22T08:45:36.222Z,62.38
2018-09-22T08:46:36.058Z,62.53
2018-09-22T08:47:36.146Z,62.31
2018-09-22T08:48:36.073Z,62.39
2018-09-22T08:49:36.432Z,62.88
2018-09-22T08:50:36.067Z,62.99
2018-09-22T08:51:36.242Z,62.75
2018-09-22T08:52:36.050Z,62.74
2018-09-22T08:53:36.892Z,62.64
2018-09-22T08:54:36.101Z,62.09
2018-09-22T08:55:36.095Z,62.54
2018-09-22T08:56:36.580Z,62.21
2018-09-22T08:57:36.479Z,62.75
2018-09-22T08:58:36.126Z,62.34
2018-09-22T08:59:36.085Z,62.53
2018-09-22T09:00:36.847Z,62.06
2018-09-22T09:01:36.279Z,61.7
2018-09-22T09:02:36.259Z,61.72
2018-09-22T09:03:36.169Z,62.27
2018-09-22T09:04:36.132Z,62.05
2018-09-22T09:05:36.227Z,61.88
2018-09-22T09:06:36.114Z,61.5
2018-09-22T09:07:36.925Z,60.71
2018-09-22T09:08:36.281Z,60.86
2018-09-22T09:09:36.194Z,60.52
2018-09-22T09:10:36.072Z,60.91
2018-09-22T09:11:36.092Z,60.95
2018-09-22T09:12:36.081Z,61.14
2018-09-22T09:13:36.181Z,61.09
2018-09-22T09:14:36.345Z,61.3
2018-09-22T09:15:36.570Z,61.34
2018-09-22T09:16:36.207Z,61.67
2018-09-22T09:17:36.118Z,61.56
2018-09-22T09:18:36.109Z,61.15
2018-09-22T09:19:36.067Z,61.5
2018-09-22T09:20:36.062Z,61.53
2018-09-22T09:21:36.079Z,61.7
2018-09-22T09:22:36.091Z,61.75
2018-09-22T09:23:36.153Z,61.54
2018-09-22T09:24:36.777Z,61.42
2018-09-22T09:25:36.108Z,62.08
2018-09-22T09:26:36.163Z,61.31
2018-09-22T09:27:36.404Z,61.77
2018-09-22T09:28:36.083Z,61.93
2018-09-22T09:29:36.068Z,61.43
2018-09-22T09:30:36.177Z,61.54
2018-09-22T09:31:36.149Z,60.25
2018-09-22T09:32:36.058Z,60.68
2018-09-22T09:33:36.106Z,60.49
2018-09-22T09:34:36.915Z,60.36
2018-09-22T09:35:36.073Z,60.98
2018-09-22T09:36:36.184Z,60.96
2018-09-22T09:37:36.239Z,60.95
2018-09-22T09:38:36.544Z,60.72
2018-09-22T09:39:36.139Z,60.48
2018-09-22T09:40:36.136Z,60.63
2018-09-22T09:41:36.295Z,60.55
2018-09-22T09:42:36.272Z,60.18
2018-09-22T09:43:36.344Z,60.11
2018-09-22T09:44:36.136Z,60.46
2018-09-22T09:45:36.989Z,60.72
2018-09-22T09:46:36.256Z,60.09
2018-09-22T09:47:36.246Z,60.11
2018-09-22T09:48:36.242Z,59.34
2018-09-22T09:49:36.237Z,59.18
2018-09-22T09:50:36.434Z,59.06
2018-09-22T09:51:36.174Z,58.77
2018-09-22T09:52:36.138Z,57.52
2018-09-22T09:53:37.051Z,57.3
2018-09-22T09:54:36.553Z,58.12
2018-09-22T09:55:36.227Z,58.13
2018-09-22T09:56:36.107Z,57.54
2018-09-22T09:57:36.092Z,57.96
2018-09-22T09:58:36.109Z,55.98
2018-09-22T09:59:36.194Z,55.59
2018-09-22T10:00:36.073Z,56.1
2018-09-22T10:01:36.083Z,56.21
2018-09-22T10:02:36.116Z,56.11
2018-09-22T10:03:36.283Z,56.57
2018-09-22T10:04:36.166Z,57.46
2018-09-22T10:05:36.231Z,56.54
2018-09-22T10:06:36.119Z,57
2018-09-22T10:07:36.228Z,55.99
2018-09-22T10:08:36.090Z,56.31
2018-09-22T10:09:36.278Z,56.5
2018-09-22T10:10:36.094Z,56.39
2018-09-22T10:11:36.338Z,56.32
2018-09-22T10:12:36.128Z,57.14
2018-09-22T10:13:36.430Z,56.73
2018-09-22T10:14:39.833Z,55.55
2018-09-22T10:15:36.256Z,56.03
2018-09-22T10:16:36.203Z,55.2
2018-09-22T10:17:36.518Z,55.77
2018-09-22T10:18:36.220Z,55.18
2018-09-22T10:19:36.150Z,55.11
2018-09-22T10:20:36.161Z,56.17
2018-09-22T10:21:37.894Z,55.63
2018-09-22T10:22:36.227Z,54.67
2018-09-22T10:23:36.171Z,53.52
2018-09-22T10:24:38.156Z,53.94
2018-09-22T10:25:36.397Z,54
2018-09-22T10:26:36.384Z,54.32
2018-09-22T10:27:36.274Z,54.61
2018-09-22T10:28:36.437Z,54.5
2018-09-22T10:29:36.150Z,54.8
2018-09-22T10:30:36.147Z,53.75
2018-09-22T10:31:36.414Z,53.86
2018-09-22T10:32:36.216Z,53.8
2018-09-22T10:33:36.160Z,53.37
2018-09-22T10:34:36.326Z,53.16
2018-09-22T10:35:36.257Z,53.76
2018-09-22T10:36:36.250Z,51.14
2018-09-22T10:37:36.398Z,50.5
2018-09-22T10:38:36.308Z,51.23
2018-09-22T10:39:36.400Z,51.42
2018-09-22T10:40:36.171Z,50.68
2018-09-22T10:41:36.172Z,50.91
2018-09-22T10:42:36.203Z,50.34
2018-09-22T10:43:36.120Z,50.69
2018-09-22T10:44:36.130Z,50.61
2018-09-22T10:45:36.195Z,51.69
2018-09-22T10:46:36.568Z,52.05
2018-09-22T10:47:36.172Z,51.55
2018-09-22T10:48:36.248Z,51.63
2018-09-22T10:49:36.465Z,51.77
2018-09-22T10:50:36.130Z,51.81
2018-09-22T10:51:36.316Z,51.49
2018-09-22T10:52:36.746Z,50.75
2018-09-22T10:53:36.321Z,50.81
2018-09-22T10:54:36.326Z,50.62
2018-09-22T10:55:36.339Z,50.9
2018-09-22T10:56:36.340Z,51.19
2018-09-22T10:57:36.085Z,51.13
2018-09-22T10:58:36.250Z,50.57
2018-09-22T10:59:36.258Z,50.62
2018-09-22T11:00:37.709Z,51.19
2018-09-22T11:01:37.362Z,50.44
2018-09-22T11:02:36.374Z,49.77
2018-09-22T11:03:36.600Z,48.54
2018-09-22T11:04:36.283Z,49.28
2018-09-22T11:05:36.305Z,48.91
2018-09-22T11:06:36.449Z,49.76
2018-09-22T11:07:36.421Z,48.5
2018-09-22T11:08:36.325Z,48.18
2018-09-22T11:09:36.269Z,48.03
2018-09-22T11:10:36.233Z,48.19
2018-09-22T11:11:36.282Z,47.17
2018-09-22T11:12:36.454Z,46.85
2018-09-22T11:13:36.356Z,48
2018-09-22T11:14:36.478Z,47.53
2018-09-22T11:15:36.372Z,48.21
2018-09-22T11:16:36.483Z,48.69
2018-09-22T11:17:36.160Z,47.61
2018-09-22T11:18:51.312Z,47.51
2018-09-22T11:19:36.309Z,46.28
2018-09-22T11:20:36.302Z,47.27
2018-09-22T11:21:36.321Z,47.08
2018-09-22T11:22:36.322Z,46.95
2018-09-22T11:23:36.325Z,47.52
2018-09-22T11:24:36.429Z,47.1
2018-09-22T11:25:36.329Z,46.81
2018-09-22T11:26:36.631Z,47.03
2018-09-22T11:27:36.240Z,46.6
2018-09-22T11:28:36.253Z,45.96
2018-09-22T11:29:36.265Z,46.69
2018-09-22T11:30:36.169Z,46.86
2018-09-22T11:31:36.328Z,46.31
2018-09-22T11:32:36.591Z,46.44
2018-09-22T11:33:36.250Z,46.95
2018-09-22T11:34:36.353Z,46.42
2018-09-22T11:35:36.215Z,46.13
2018-09-22T11:36:36.197Z,44.55
2018-09-22T11:37:36.485Z,44.87
2018-09-22T11:38:36.228Z,45.53
2018-09-22T11:39:36.140Z,45.23
2018-09-22T11:40:36.481Z,45.17
2018-09-22T11:41:36.315Z,44.5
2018-09-22T11:42:36.264Z,45.4
2018-09-22T11:43:36.138Z,45.13
2018-09-22T11:44:36.205Z,45.49
2018-09-22T11:45:36.372Z,45.46
2018-09-22T11:46:36.193Z,45.89
2018-09-22T11:47:36.129Z,45.68
2018-09-22T11:48:36.129Z,45.61
2018-09-22T11:49:36.196Z,45.39
2018-09-22T11:50:36.218Z,44.4
2018-09-22T11:51:36.295Z,45.02
2018-09-22T11:52:36.216Z,45.21
2018-09-22T11:53:36.335Z,44.07
2018-09-22T11:54:36.393Z,44.26
2018-09-22T11:55:36.263Z,44.92
2018-09-22T11:56:36.556Z,45.56
2018-09-22T11:57:36.144Z,45.85
2018-09-22T11:58:36.510Z,45.43
2018-09-22T11:59:36.150Z,45.48
2018-09-22T12:00:36.278Z,45.55
2018-09-22T12:01:36.171Z,45.66
2018-09-22T12:02:36.196Z,45.77
2018-09-22T12:03:36.197Z,45.38
2018-09-22T12:04:36.194Z,45.53
2018-09-22T12:05:36.209Z,45.58
2018-09-22T12:06:36.829Z,45.21
2018-09-22T12:07:36.182Z,45.09
2018-09-22T12:08:36.171Z,44.9
2018-09-22T12:09:36.138Z,45.26
2018-09-22T12:10:36.208Z,45.18
2018-09-22T12:11:36.391Z,45.05
2018-09-22T12:12:36.187Z,45.33
2018-09-22T12:13:36.182Z,45.22
2018-09-22T12:14:36.195Z,44.56
2018-09-22T12:15:36.159Z,45.07
2018-09-22T12:16:36.237Z,44.37
2018-09-22T12:17:36.190Z,43.56
2018-09-22T12:18:36.193Z,44.12
2018-09-22T12:19:36.235Z,43.59
2018-09-22T12:20:36.199Z,43.42
2018-09-22T12:21:36.192Z,43.42
2018-09-22T12:22:36.479Z,43.54
2018-09-22T12:23:36.269Z,44.38
2018-09-22T12:24:36.357Z,44.03
2018-09-22T12:25:36.243Z,43.22
2018-09-22T12:26:36.680Z,43.97
2018-09-22T12:27:36.544Z,44.22
2018-09-22T12:28:36.235Z,43.5
2018-09-22T12:29:36.297Z,43.27
2018-09-22T12:30:36.223Z,43.26
2018-09-22T12:31:36.359Z,43.89
2018-09-22T12:32:36.169Z,43.71
2018-09-22T12:33:36.412Z,43.67
2018-09-22T12:34:36.367Z,43.38
2018-09-22T12:35:36.450Z,42.72
2018-09-22T12:36:36.261Z,43.34
2018-09-22T12:37:36.423Z,42.47
2018-09-22T12:38:36.259Z,43.45
2018-09-22T12:39:36.209Z,43.02
2018-09-22T12:40:36.319Z,43.51
2018-09-22T12:41:36.288Z,43.71
2018-09-22T12:42:36.269Z,43.88
2018-09-22T12:43:36.286Z,43.74
2018-09-22T12:44:36.272Z,43.64
2018-09-22T12:45:36.178Z,43.06
2018-09-22T12:46:36.599Z,43.67
2018-09-22T12:47:36.369Z,43.92
2018-09-22T12:48:36.250Z,43.84
2018-09-22T12:49:36.257Z,43.65
2018-09-22T12:50:36.236Z,43.74
2018-09-22T12:51:36.203Z,43.65
2018-09-22T12:52:36.330Z,43.52
2018-09-22T12:53:36.409Z,44.07
2018-09-22T12:54:36.304Z,42.73
2018-09-22T12:55:36.252Z,43.03
2018-09-22T12:56:36.270Z,42.42